createdAt,value
2022-11-21T00:01:38.490Z,96.77
2022-11-21T00:03:41.299Z,96.87
2022-11-21T00:05:47.017Z,97.29
2022-11-21T00:07:50.047Z,97.48
2022-11-21T00:09:52.652Z,97.16
2022-11-21T00:11:55.228Z,98.03
2022-11-21T00:13:58.151Z,97.67
2022-11-21T00:16:08.663Z,97.38
2022-11-21T00:18:13.097Z,97.17
2022-11-21T00:20:16.822Z,97.49
2022-11-21T00:22:19.546Z,97.05
2022-11-21T00:24:22.102Z,97.07
2022-11-21T00:26:24.746Z,96.41
2022-11-21T00:28:27.424Z,96.86
2022-11-21T00:30:30.417Z,96.61
2022-11-21T00:32:33.245Z,97.25
2022-11-21T00:34:35.997Z,96.94
2022-11-21T00:36:38.620Z,97.08
2022-11-21T00:38:41.192Z,97.08
2022-11-21T00:40:45.134Z,96.94
2022-11-21T00:42:47.738Z,96.85
2022-11-21T00:44:50.345Z,96.72
2022-11-21T00:46:52.948Z,96.82
2022-11-21T00:48:55.552Z,96.83
2022-11-21T00:50:58.360Z,96.39
2022-11-21T00:53:01.096Z,96.86
2022-11-21T00:55:03.777Z,96.97
2022-11-21T00:57:06.484Z,96.96
2022-11-21T00:59:09.159Z,97.12
2022-11-21T01:01:14.464Z,97.66
2022-11-21T01:03:17.710Z,96.84
2022-11-21T01:05:20.346Z,97.87
2022-11-21T01:07:23.013Z,97.12
2022-11-21T01:09:25.823Z,97.56
2022-11-21T01:11:29.332Z,96.62
2022-11-21T01:13:32.490Z,96.88
2022-11-21T01:15:35.160Z,97.28
2022-11-21T01:17:37.820Z,98.06
2022-11-21T01:19:40.506Z,97.26
2022-11-21T01:21:43.129Z,96.99
2022-11-21T01:23:46.126Z,96.95
2022-11-21T01:25:48.770Z,97.20
2022-11-21T01:27:51.471Z,97.30
2022-11-21T01:29:53.997Z,97.13
2022-11-21T01:31:56.700Z,97.53
2022-11-21T01:34:00.643Z,97.58
2022-11-21T01:36:23.113Z,97.46
2022-11-21T01:38:25.786Z,97.63
2022-11-21T01:40:28.554Z,97.65
2022-11-21T01:42:47.114Z,97.15
2022-11-21T01:44:53.644Z,96.98
2022-11-21T01:46:56.355Z,97.24
2022-11-21T01:49:08.247Z,97.18
2022-11-21T01:51:14.220Z,97.00
2022-11-21T01:53:17.282Z,97.24
2022-11-21T01:55:20.044Z,96.63
2022-11-21T01:57:28.702Z,96.68
2022-11-21T01:59:37.497Z,97.10
2022-11-21T02:01:40.263Z,97.08
2022-11-21T02:03:45.779Z,97.44
2022-11-21T02:05:48.926Z,96.94
2022-11-21T02:07:55.921Z,98.04
2022-11-21T02:10:01.902Z,97.45
2022-11-21T02:12:25.326Z,97.33
2022-11-21T02:14:48.518Z,97.45
2022-11-21T02:16:51.436Z,97.27
2022-11-21T02:18:54.355Z,97.14
2022-11-21T02:21:05.908Z,97.34
2022-11-21T02:23:20.073Z,97.06
2022-11-21T02:25:26.340Z,96.48
2022-11-21T02:27:29.533Z,96.87
2022-11-21T02:29:32.942Z,96.68
2022-11-21T02:31:35.469Z,96.63
2022-11-21T02:33:38.071Z,96.90
2022-11-21T02:35:40.718Z,97.29
2022-11-21T02:37:46.051Z,96.64
2022-11-21T02:39:49.944Z,97.45
2022-11-21T02:42:05.351Z,97.07
2022-11-21T02:44:24.838Z,97.18
2022-11-21T02:46:28.724Z,96.97
2022-11-21T02:48:31.497Z,97.22
2022-11-21T02:50:38.943Z,97.18
2022-11-21T02:52:41.841Z,97.06
2022-11-21T02:54:44.489Z,97.11
2022-11-21T02:56:47.146Z,97.39
2022-11-21T02:58:49.858Z,97.04
2022-11-21T03:00:52.537Z,97.51
2022-11-21T03:02:56.271Z,96.80
2022-11-21T03:04:59.032Z,97.42
2022-11-21T03:07:01.783Z,97.16
2022-11-21T03:09:04.493Z,97.01
2022-11-21T03:11:07.106Z,96.94
2022-11-21T03:13:09.702Z,97.15
2022-11-21T03:15:15.328Z,96.64
2022-11-21T03:17:18.493Z,97.13
2022-11-21T03:19:21.160Z,97.36
2022-11-21T03:21:23.883Z,97.18
2022-11-21T03:23:26.533Z,97.16
2022-11-21T03:25:31.548Z,97.86
2022-11-21T03:27:34.192Z,97.34
2022-11-21T03:29:36.821Z,97.44
2022-11-21T03:31:39.472Z,97.03
2022-11-21T03:33:42.064Z,97.06
2022-11-21T03:35:44.672Z,97.59
2022-11-21T03:37:49.262Z,97.91
2022-11-21T03:39:51.863Z,96.98
2022-11-21T03:41:54.539Z,96.95
2022-11-21T03:44:08.942Z,96.83
2022-11-21T03:46:11.496Z,97.30
2022-11-21T03:48:15.596Z,97.10
2022-11-21T03:50:21.082Z,97.43
2022-11-21T03:52:23.756Z,97.34
2022-11-21T03:54:26.509Z,97.51
2022-11-21T03:56:29.980Z,97.24
2022-11-21T03:58:32.684Z,97.69
2022-11-21T04:00:35.345Z,97.07
2022-11-21T04:02:38.330Z,97.16
2022-11-21T04:04:41.023Z,97.07
2022-11-21T04:06:43.741Z,97.36
2022-11-21T04:08:46.375Z,98.03
2022-11-21T04:10:52.796Z,97.87
2022-11-21T04:12:55.370Z,98.19
2022-11-21T04:14:57.997Z,97.96
2022-11-21T04:17:00.572Z,97.61
2022-11-21T04:19:03.214Z,97.56
2022-11-21T04:21:07.984Z,97.88
2022-11-21T04:23:10.882Z,97.67
2022-11-21T04:25:14.138Z,98.44
2022-11-21T04:27:16.804Z,97.66
2022-11-21T04:29:19.559Z,97.63
2022-11-21T04:31:22.264Z,98.20
2022-11-21T04:33:24.894Z,97.88
2022-11-21T04:35:28.006Z,98.27
2022-11-21T04:37:30.662Z,97.89
2022-11-21T04:39:33.383Z,98.14
2022-11-21T04:41:37.070Z,97.81
2022-11-21T04:43:39.751Z,97.52
2022-11-21T04:45:44.672Z,97.40
2022-11-21T04:47:47.895Z,97.39
2022-11-21T04:49:50.580Z,97.13
2022-11-21T04:51:53.190Z,97.09
2022-11-21T04:53:55.866Z,96.79
2022-11-21T04:55:58.653Z,96.71
2022-11-21T04:58:01.488Z,96.56
2022-11-21T05:00:04.952Z,96.96
2022-11-21T05:02:07.519Z,96.46
2022-11-21T05:04:10.042Z,97.47
2022-11-21T05:06:12.737Z,97.53
2022-11-21T05:08:15.368Z,97.28
2022-11-21T05:10:18.089Z,96.81
2022-11-21T05:12:39.338Z,96.58
2022-11-21T05:14:42.097Z,96.56
2022-11-21T05:16:44.764Z,97.14
2022-11-21T05:18:47.388Z,97.04
2022-11-21T05:20:50.069Z,96.88
2022-11-21T05:22:52.759Z,96.44
2022-11-21T05:24:55.384Z,95.77
2022-11-21T05:26:58.044Z,96.03
2022-11-21T05:29:00.721Z,96.35
2022-11-21T05:31:03.343Z,96.51
2022-11-21T05:33:06.230Z,96.73
2022-11-21T05:35:09.188Z,95.85
2022-11-21T05:37:11.714Z,96.91
2022-11-21T05:39:16.083Z,95.47
2022-11-21T05:41:18.720Z,96.04
2022-11-21T05:43:39.920Z,95.10
2022-11-21T05:45:42.638Z,95.23
2022-11-21T05:47:45.188Z,95.70
2022-11-21T05:49:47.829Z,95.34
2022-11-21T05:51:50.756Z,94.99
2022-11-21T05:53:53.348Z,95.42
2022-11-21T05:55:56.075Z,94.55
2022-11-21T05:58:00.109Z,94.36
2022-11-21T06:00:02.990Z,94.01
2022-11-21T06:02:25.606Z,94.39
2022-11-21T06:04:28.325Z,94.75
2022-11-21T06:06:31.064Z,94.86
2022-11-21T06:08:42.279Z,94.30
2022-11-21T06:10:45.057Z,93.95
2022-11-21T06:12:47.693Z,94.39
2022-11-21T06:14:50.369Z,94.85
2022-11-21T06:16:53.146Z,93.86
2022-11-21T06:18:58.613Z,93.67
2022-11-21T06:21:09.618Z,94.19
2022-11-21T06:23:13.218Z,93.60
2022-11-21T06:25:15.948Z,93.72
2022-11-21T06:27:18.579Z,94.07
2022-11-21T06:29:22.430Z,93.79
2022-11-21T06:31:27.146Z,94.82
2022-11-21T06:33:29.812Z,93.63
2022-11-21T06:35:32.859Z,93.78
2022-11-21T06:37:35.565Z,93.05
2022-11-21T06:39:38.323Z,94.27
2022-11-21T06:41:40.947Z,93.60
2022-11-21T06:43:44.509Z,93.89
2022-11-21T06:45:47.071Z,93.41
2022-11-21T06:47:49.774Z,93.43
2022-11-21T06:49:52.521Z,93.61
2022-11-21T06:51:55.444Z,93.31
2022-11-21T06:53:59.375Z,93.38
2022-11-21T06:56:03.213Z,93.20
2022-11-21T06:58:05.797Z,92.10
2022-11-21T07:00:09.064Z,92.71
2022-11-21T07:02:14.800Z,92.09
2022-11-21T07:04:17.491Z,92.57
2022-11-21T07:06:20.165Z,91.91
2022-11-21T07:08:22.803Z,90.99
2022-11-21T07:10:25.498Z,92.17
2022-11-21T07:12:46.857Z,91.80
2022-11-21T07:14:49.506Z,91.70
2022-11-21T07:16:52.212Z,91.75
2022-11-21T07:18:54.864Z,91.48
2022-11-21T07:21:01.837Z,90.64
2022-11-21T07:23:04.879Z,90.01
2022-11-21T07:25:07.739Z,90.55
2022-11-21T07:27:10.801Z,91.07
2022-11-21T07:29:13.748Z,90.80
2022-11-21T07:31:16.291Z,89.86
2022-11-21T07:33:18.888Z,89.32
2022-11-21T07:35:21.516Z,89.79
2022-11-21T07:37:24.189Z,89.92
2022-11-21T07:39:27.110Z,89.51
2022-11-21T07:41:29.993Z,88.95
2022-11-21T07:43:32.604Z,89.60
2022-11-21T07:45:35.335Z,89.57
2022-11-21T07:47:38.059Z,88.72
2022-11-21T07:49:40.704Z,88.58
2022-11-21T07:51:43.411Z,88.72
2022-11-21T07:53:46.131Z,88.31
2022-11-21T07:55:48.783Z,88.51
2022-11-21T07:58:05.691Z,88.75
2022-11-21T08:00:09.432Z,90.12
2022-11-21T08:02:26.433Z,88.87
2022-11-21T08:04:29.171Z,88.69
2022-11-21T08:06:31.935Z,89.49
2022-11-21T08:08:34.609Z,89.51
2022-11-21T08:10:39.883Z,89.57
2022-11-21T08:12:43.433Z,89.21
2022-11-21T08:14:46.682Z,88.87
2022-11-21T08:16:53.113Z,90.21
2022-11-21T08:18:56.098Z,89.73
2022-11-21T08:21:02.857Z,88.25
2022-11-21T08:23:07.003Z,89.17
2022-11-21T08:25:11.055Z,88.66
2022-11-21T08:27:14.817Z,89.88
2022-11-21T08:29:17.872Z,88.24
2022-11-21T08:31:20.977Z,89.67
2022-11-21T08:33:24.423Z,89.18
2022-11-21T08:35:28.640Z,89.13
2022-11-21T08:37:31.863Z,88.62
2022-11-21T08:39:35.410Z,88.23
2022-11-21T08:41:57.693Z,89.28
2022-11-21T08:44:00.744Z,88.83
2022-11-21T08:46:04.046Z,87.80
2022-11-21T08:48:12.604Z,87.69
2022-11-21T08:50:15.851Z,87.49
2022-11-21T08:52:18.867Z,87.67
2022-11-21T08:54:24.896Z,88.01
2022-11-21T08:56:28.779Z,87.49
2022-11-21T08:58:31.891Z,87.68
2022-11-21T09:00:34.896Z,87.48
2022-11-21T09:02:37.824Z,86.05
2022-11-21T09:04:40.815Z,87.27
2022-11-21T09:06:43.981Z,86.88
2022-11-21T09:08:47.094Z,85.96
2022-11-21T09:10:50.065Z,87.02
2022-11-21T09:12:53.014Z,87.52
2022-11-21T09:15:14.591Z,87.99
2022-11-21T09:17:35.904Z,86.62
2022-11-21T09:19:38.568Z,87.01
2022-11-21T09:21:41.115Z,87.48
2022-11-21T09:23:44.493Z,87.96
2022-11-21T09:25:47.951Z,86.69
2022-11-21T09:27:50.708Z,87.53
2022-11-21T09:29:54.324Z,86.73
2022-11-21T09:31:57.196Z,87.38
2022-11-21T09:33:59.896Z,88.04
2022-11-21T09:36:02.564Z,87.62
2022-11-21T09:38:06.159Z,87.95
2022-11-21T09:40:17.012Z,87.67
2022-11-21T09:42:58.216Z,86.94
2022-11-21T09:45:07.188Z,86.97
2022-11-21T09:47:21.656Z,87.25
2022-11-21T09:49:25.824Z,86.65
2022-11-21T09:51:31.672Z,87.32
2022-11-21T09:53:45.897Z,85.71
2022-11-21T09:55:52.669Z,87.08
2022-11-21T09:57:55.577Z,86.86
2022-11-21T09:59:58.333Z,88.25
2022-11-21T10:02:01.643Z,88.90
2022-11-21T10:04:04.895Z,88.20
2022-11-21T10:06:10.129Z,88.00
2022-11-21T10:08:55.567Z,89.03
2022-11-21T10:11:24.233Z,88.62
2022-11-21T10:13:33.271Z,89.21
2022-11-21T10:15:54.237Z,89.53
2022-11-21T10:18:04.361Z,88.87
2022-11-21T10:20:25.693Z,88.65
2022-11-21T10:22:28.243Z,88.66
2022-11-21T10:24:55.189Z,88.81
2022-11-21T10:27:39.994Z,88.80
2022-11-21T10:29:53.493Z,89.65
2022-11-21T10:32:02.570Z,90.06
2022-11-21T10:34:13.839Z,89.07
2022-11-21T10:36:35.083Z,89.39
2022-11-21T10:38:41.208Z,89.83
2022-11-21T10:40:52.002Z,89.64
2022-11-21T10:43:50.482Z,89.86
2022-11-21T10:45:54.592Z,89.21
2022-11-21T10:47:57.393Z,89.38
2022-11-21T10:50:15.046Z,90.80
2022-11-21T10:52:23.948Z,90.17
2022-11-21T10:54:35.572Z,89.57
2022-11-21T10:56:39.013Z,89.93
2022-11-21T10:58:43.784Z,90.38
2022-11-21T11:00:58.661Z,90.21
2022-11-21T11:03:16.610Z,90.62
2022-11-21T11:05:21.647Z,89.65
2022-11-21T11:07:29.095Z,90.34
2022-11-21T11:09:35.567Z,89.51
2022-11-21T11:11:38.449Z,91.14
2022-11-21T11:14:01.001Z,90.45
2022-11-21T11:16:13.611Z,91.74
2022-11-21T11:18:16.192Z,91.01
2022-11-21T11:20:38.266Z,91.82
2022-11-21T11:22:40.891Z,91.01
2022-11-21T11:24:57.457Z,92.95
2022-11-21T11:27:03.855Z,92.23
2022-11-21T11:29:26.113Z,92.09
2022-11-21T11:31:40.937Z,92.62
2022-11-21T11:33:49.806Z,91.66
2022-11-21T11:35:52.461Z,92.10
2022-11-21T11:38:03.647Z,92.43
2022-11-21T11:40:09.028Z,93.02
2022-11-21T11:42:51.237Z,93.45
2022-11-21T11:45:35.253Z,93.46
2022-11-21T11:47:55.121Z,93.59
2022-11-21T11:50:11.512Z,92.97
2022-11-21T11:52:15.421Z,93.88
2022-11-21T11:54:23.155Z,93.56
2022-11-21T11:56:25.679Z,94.03
2022-11-21T11:58:45.149Z,93.37
2022-11-21T12:01:00.507Z,93.32
2022-11-21T12:03:35.685Z,93.46
2022-11-21T12:05:47.029Z,93.26
2022-11-21T12:11:15.990Z,94.74
2022-11-21T12:13:20.108Z,95.17
2022-11-21T12:15:47.030Z,94.88
2022-11-21T12:18:20.464Z,93.28
2022-11-21T12:20:40.221Z,94.81
2022-11-21T12:22:44.343Z,93.66
2022-11-21T12:24:48.101Z,94.49
2022-11-21T12:27:01.382Z,94.68
2022-11-21T12:29:41.580Z,94.95
2022-11-21T12:32:19.580Z,94.52
2022-11-21T12:34:27.880Z,95.25
2022-11-21T12:36:44.005Z,94.59
2022-11-21T12:39:34.381Z,95.08
2022-11-21T12:42:12.136Z,96.45
2022-11-21T12:44:33.484Z,96.81
2022-11-21T12:46:47.107Z,95.97
2022-11-21T12:49:24.191Z,96.11
2022-11-21T12:52:19.166Z,95.94
2022-11-21T12:54:30.743Z,97.12
2022-11-21T12:56:49.595Z,96.42
2022-11-21T12:58:55.164Z,95.41
2022-11-21T13:01:06.592Z,96.06
2022-11-21T13:03:42.600Z,96.78
2022-11-21T13:05:48.735Z,96.14
2022-11-21T13:07:59.273Z,96.04
2022-11-21T13:10:04.479Z,96.49
2022-11-21T13:12:18.153Z,95.66
2022-11-21T13:14:53.419Z,96.24
2022-11-21T13:17:13.920Z,96.01
2022-11-21T13:19:25.084Z,96.92
2022-11-21T13:21:50.882Z,96.68
2022-11-21T13:23:56.752Z,96.62
2022-11-21T13:26:00.126Z,96.44
2022-11-21T13:28:17.747Z,96.58
2022-11-21T13:30:23.119Z,96.47
2022-11-21T13:32:44.915Z,97.47
2022-11-21T13:34:47.828Z,97.41
2022-11-21T13:36:50.495Z,97.05
2022-11-21T13:38:53.056Z,96.81
2022-11-21T13:41:14.427Z,96.71
2022-11-21T13:43:32.776Z,97.18
2022-11-21T13:45:43.400Z,97.11
2022-11-21T13:48:15.473Z,97.31
2022-11-21T13:50:31.771Z,97.12
2022-11-21T13:52:42.587Z,97.65
2022-11-21T13:55:19.368Z,98.10
2022-11-21T13:57:33.081Z,97.61
2022-11-21T13:59:58.663Z,97.59
2022-11-21T14:02:19.408Z,97.11
2022-11-21T14:04:31.332Z,97.67
2022-11-21T14:06:43.683Z,98.59
2022-11-21T14:09:04.713Z,98.00
2022-11-21T14:11:36.464Z,97.54
2022-11-21T14:13:47.050Z,97.29
2022-11-21T14:16:42.258Z,98.20
2022-11-21T14:18:47.280Z,97.83
2022-11-21T14:20:52.179Z,97.59
2022-11-21T14:22:58.489Z,98.30
2022-11-21T14:25:06.429Z,96.73
2022-11-21T14:27:26.508Z,97.70
2022-11-21T14:29:40.946Z,96.80
2022-11-21T14:31:48.066Z,96.52
2022-11-21T14:33:58.469Z,97.43
2022-11-21T14:36:30.611Z,96.56
2022-11-21T14:38:51.006Z,96.52
2022-11-21T14:41:25.734Z,96.16
2022-11-21T14:43:31.938Z,95.79
2022-11-21T14:45:34.611Z,96.90
2022-11-21T14:47:47.131Z,96.97
2022-11-21T14:49:51.828Z,95.72
2022-11-21T14:52:18.098Z,96.23
2022-11-21T14:54:23.884Z,95.76
2022-11-21T14:56:29.383Z,97.10
2022-11-21T14:58:32.037Z,96.09
2022-11-21T15:02:59.320Z,97.56
2022-11-21T15:05:05.420Z,97.47
2022-11-21T15:07:31.355Z,96.87
2022-11-21T15:12:05.705Z,96.85
2022-11-21T15:14:17.622Z,96.14
2022-11-21T15:16:22.327Z,96.64
2022-11-21T15:18:28.657Z,97.08
2022-11-21T15:20:31.916Z,96.97
2022-11-21T15:22:37.539Z,97.33
2022-11-21T15:24:43.184Z,97.41
2022-11-21T15:26:47.361Z,97.31
2022-11-21T15:28:58.118Z,95.97
2022-11-21T15:31:20.437Z,96.43
2022-11-21T15:33:22.899Z,96.92
2022-11-21T15:35:42.563Z,96.12
2022-11-21T15:37:51.173Z,96.71
2022-11-21T15:39:55.212Z,96.28
2022-11-21T15:42:32.876Z,96.69
2022-11-21T15:44:35.521Z,96.82
2022-11-21T15:46:42.227Z,96.60
2022-11-21T15:48:50.642Z,97.43
2022-11-21T15:50:57.667Z,96.38
2022-11-21T15:53:01.661Z,96.01
2022-11-21T15:55:04.492Z,95.88
2022-11-21T15:57:08.511Z,95.70
2022-11-21T15:59:11.164Z,95.58
2022-11-21T16:01:15.819Z,95.89
2022-11-21T16:03:18.471Z,95.09
2022-11-21T16:05:21.058Z,95.89
2022-11-21T16:07:23.777Z,95.12
2022-11-21T16:09:26.754Z,95.64
2022-11-21T16:11:40.674Z,95.03
2022-11-21T16:13:44.315Z,95.06
2022-11-21T16:15:47.072Z,95.06
2022-11-21T16:17:49.668Z,95.51
2022-11-21T16:19:52.857Z,95.17
2022-11-21T16:21:55.440Z,95.37
2022-11-21T16:23:58.055Z,95.31
2022-11-21T16:26:01.171Z,95.72
2022-11-21T16:28:07.264Z,94.99
2022-11-21T16:30:10.439Z,95.03
2022-11-21T16:32:13.712Z,95.03
2022-11-21T16:34:20.267Z,94.98
2022-11-21T16:36:25.589Z,94.87
2022-11-21T16:38:29.116Z,95.09
2022-11-21T16:40:31.644Z,95.66
2022-11-21T16:42:34.265Z,95.08
2022-11-21T16:44:37.014Z,95.34
2022-11-21T16:46:44.034Z,94.98
2022-11-21T16:48:47.333Z,95.13
2022-11-21T16:50:50.606Z,95.17
2022-11-21T16:52:54.375Z,94.66
2022-11-21T16:54:58.206Z,94.44
2022-11-21T16:57:01.056Z,95.05
2022-11-21T16:59:03.692Z,94.65
2022-11-21T17:01:16.981Z,95.31
2022-11-21T17:03:19.749Z,95.39
2022-11-21T17:05:22.394Z,95.27
2022-11-21T17:07:25.143Z,94.64
2022-11-21T17:09:27.864Z,95.21
2022-11-21T17:11:32.217Z,95.06
2022-11-21T17:13:34.920Z,94.85
2022-11-21T17:15:37.584Z,95.44
2022-11-21T17:17:41.084Z,94.96
2022-11-21T17:19:44.044Z,95.44
2022-11-21T17:21:46.749Z,95.59
2022-11-21T17:23:49.780Z,95.34
2022-11-21T17:25:52.362Z,95.00
2022-11-21T17:27:55.199Z,95.10
2022-11-21T17:29:57.748Z,95.64
2022-11-21T17:32:00.346Z,95.63
2022-11-21T17:34:03.199Z,95.37
2022-11-21T17:36:08.100Z,95.33
2022-11-21T17:38:10.765Z,94.77
2022-11-21T17:40:13.912Z,95.51
2022-11-21T17:42:16.906Z,95.26
2022-11-21T17:44:19.622Z,95.82
2022-11-21T17:46:22.385Z,95.93
2022-11-21T17:48:24.989Z,94.95
2022-11-21T17:50:28.107Z,94.53
2022-11-21T17:52:31.049Z,94.92
2022-11-21T17:54:34.002Z,95.00
2022-11-21T17:56:45.053Z,95.03
2022-11-21T17:58:50.095Z,95.84
2022-11-21T18:00:56.822Z,95.49
2022-11-21T18:02:59.813Z,95.51
2022-11-21T18:05:02.458Z,94.94
2022-11-21T18:07:07.053Z,95.10
2022-11-21T18:09:13.402Z,94.90
2022-11-21T18:11:19.265Z,94.58
2022-11-21T18:13:22.050Z,95.27
2022-11-21T18:15:24.748Z,95.00
2022-11-21T18:17:27.588Z,94.67
2022-11-21T18:19:30.160Z,95.16
2022-11-21T18:21:35.626Z,95.22
2022-11-21T18:23:38.912Z,95.17
2022-11-21T18:25:41.569Z,94.79
2022-11-21T18:27:47.583Z,95.59
2022-11-21T18:29:54.437Z,95.58
2022-11-21T18:31:57.026Z,95.08
2022-11-21T18:34:02.004Z,95.05
2022-11-21T18:36:06.277Z,96.14
2022-11-21T18:38:08.864Z,96.17
2022-11-21T18:40:12.494Z,95.92
2022-11-21T18:42:15.409Z,95.84
2022-11-21T18:44:22.263Z,95.80
2022-11-21T18:46:27.549Z,95.47
2022-11-21T18:49:00.154Z,95.12
2022-11-21T18:50:52.985Z,95.73
2022-11-21T18:52:55.539Z,95.44
2022-11-21T18:54:58.191Z,95.16
2022-11-21T18:57:00.793Z,95.48
2022-11-21T18:59:05.988Z,96.02
2022-11-21T19:01:13.111Z,96.35
2022-11-21T19:03:16.279Z,95.98
2022-11-21T19:05:20.703Z,95.64
2022-11-21T19:07:23.641Z,94.82
2022-11-21T19:09:32.425Z,95.33
2022-11-21T19:11:35.540Z,95.26
2022-11-21T19:13:38.276Z,95.75
2022-11-21T19:15:43.032Z,96.23
2022-11-21T19:17:45.582Z,96.34
2022-11-21T19:19:48.723Z,96.27
2022-11-21T19:21:51.485Z,95.07
2022-11-21T19:23:54.841Z,95.58
2022-11-21T19:26:06.050Z,95.30
2022-11-21T19:28:08.769Z,94.29
2022-11-21T19:30:12.101Z,95.00
2022-11-21T19:32:14.665Z,94.63
2022-11-21T19:34:17.346Z,95.62
2022-11-21T19:36:21.524Z,95.59
2022-11-21T19:38:24.105Z,94.62
2022-11-21T19:40:46.688Z,94.13
2022-11-21T19:42:49.301Z,95.35
2022-11-21T19:44:51.824Z,94.82
2022-11-21T19:46:54.361Z,94.97
2022-11-21T19:48:57.723Z,94.43
2022-11-21T19:51:02.388Z,94.96
2022-11-21T19:53:05.024Z,94.70
2022-11-21T19:55:08.105Z,94.60
2022-11-21T19:57:13.862Z,94.38
2022-11-21T19:59:16.941Z,95.35
2022-11-21T20:01:22.652Z,95.56
2022-11-21T20:03:25.269Z,95.22
2022-11-21T20:05:27.891Z,94.42
2022-11-21T20:07:34.099Z,94.51
2022-11-21T20:09:37.324Z,94.33
2022-11-21T20:11:42.379Z,93.94
2022-11-21T20:13:46.198Z,94.97
2022-11-21T20:15:49.233Z,95.25
2022-11-21T20:17:53.642Z,95.50
2022-11-21T20:19:58.101Z,95.79
2022-11-21T20:22:00.694Z,95.38
2022-11-21T20:24:04.846Z,94.25
2022-11-21T20:26:09.301Z,95.59
2022-11-21T20:28:12.196Z,96.22
2022-11-21T20:30:15.217Z,95.26
2022-11-21T20:32:17.811Z,94.92
2022-11-21T20:34:20.588Z,94.97
2022-11-21T20:36:25.044Z,94.82
2022-11-21T20:38:27.615Z,94.30
2022-11-21T20:40:30.234Z,94.42
2022-11-21T20:42:32.860Z,93.95
2022-11-21T20:46:59.728Z,94.36
2022-11-21T20:49:02.509Z,94.16
2022-11-21T20:52:25.573Z,94.22
2022-11-21T20:55:51.664Z,94.27
2022-11-21T20:57:54.259Z,94.50
2022-11-21T20:59:56.872Z,94.25
2022-11-21T21:01:59.524Z,94.15
2022-11-21T21:04:02.217Z,93.92
2022-11-21T21:06:07.667Z,93.98
2022-11-21T21:08:10.207Z,95.08
2022-11-21T21:10:12.843Z,94.48
2022-11-21T21:12:15.498Z,94.06
2022-11-21T21:14:18.106Z,94.59
2022-11-21T21:16:23.805Z,94.22
2022-11-21T21:18:26.428Z,94.18
2022-11-21T21:20:29.048Z,94.28
2022-11-21T21:22:31.708Z,94.30
2022-11-21T21:24:34.426Z,94.23
2022-11-21T21:26:42.618Z,94.97
2022-11-21T21:28:45.652Z,94.06
2022-11-21T21:30:48.207Z,94.92
2022-11-21T21:32:50.851Z,94.36
2022-11-21T21:34:53.473Z,94.00
2022-11-21T21:36:56.281Z,94.28
2022-11-21T21:39:00.252Z,94.10
2022-11-21T21:41:07.938Z,94.65
2022-11-21T21:43:10.573Z,93.88
2022-11-21T21:45:13.401Z,93.62
2022-11-21T21:47:17.396Z,94.67
2022-11-21T21:49:20.131Z,94.94
2022-11-21T21:51:27.889Z,94.59
2022-11-21T21:53:31.245Z,93.65
2022-11-21T21:55:33.803Z,93.97
2022-11-21T21:57:41.569Z,93.59
2022-11-21T21:59:46.826Z,93.58
2022-11-21T22:01:49.654Z,93.55
2022-11-21T22:04:00.894Z,93.73
2022-11-21T22:06:05.686Z,94.62
2022-11-21T22:08:08.280Z,93.91
2022-11-21T22:10:10.981Z,93.69
2022-11-21T22:12:13.580Z,94.28
2022-11-21T22:14:17.092Z,93.90
2022-11-21T22:16:19.818Z,94.77
2022-11-21T22:18:22.805Z,94.11
2022-11-21T22:20:25.346Z,93.74
2022-11-21T22:22:27.958Z,93.85
2022-11-21T22:24:30.603Z,93.59
2022-11-21T22:26:33.287Z,93.74
2022-11-21T22:28:36.369Z,94.52
2022-11-21T22:30:38.955Z,93.86
2022-11-21T22:32:41.563Z,94.25
2022-11-21T22:34:45.194Z,93.74
2022-11-21T22:36:47.894Z,94.08
2022-11-21T22:38:54.345Z,94.45
2022-11-21T22:41:05.256Z,93.61
2022-11-21T22:43:09.731Z,93.85
2022-11-21T22:45:12.257Z,93.14
2022-11-21T22:47:14.953Z,93.81
2022-11-21T22:49:17.556Z,94.07
2022-11-21T22:51:25.680Z,93.82
2022-11-21T22:53:28.497Z,93.67
2022-11-21T22:55:31.125Z,94.25
2022-11-21T22:57:34.756Z,94.52
2022-11-21T22:59:37.383Z,94.34
2022-11-21T23:01:40.121Z,93.61
2022-11-21T23:03:44.087Z,93.83
2022-11-21T23:05:46.954Z,93.64
2022-11-21T23:07:49.679Z,94.73
2022-11-21T23:09:52.603Z,94.51
2022-11-21T23:11:55.220Z,94.29
2022-11-21T23:13:58.452Z,93.78
2022-11-21T23:16:01.866Z,93.62
2022-11-21T23:18:04.776Z,94.62
2022-11-21T23:20:08.029Z,94.71
2022-11-21T23:22:11.471Z,94.05
2022-11-21T23:24:14.287Z,94.32
2022-11-21T23:26:17.541Z,94.37
2022-11-21T23:28:20.485Z,94.90
2022-11-21T23:30:23.086Z,95.34
2022-11-21T23:32:25.710Z,95.12
2022-11-21T23:34:28.307Z,93.86
2022-11-21T23:36:30.956Z,93.66
2022-11-21T23:38:33.595Z,93.03
2022-11-21T23:40:36.760Z,93.27
2022-11-21T23:42:39.428Z,93.83
2022-11-21T23:44:43.290Z,94.03
2022-11-21T23:46:45.913Z,94.09
2022-11-21T23:48:48.616Z,93.43
2022-11-21T23:50:51.545Z,93.47
2022-11-21T23:52:54.281Z,94.08
2022-11-21T23:54:57.245Z,93.43
2022-11-21T23:56:59.855Z,93.55
2022-11-21T23:59:02.482Z,93.60
